sensor_id;sensor_type;location;lat;lon;timestamp;P1;durP1;ratioP1;P2;durP2;ratioP2
77012;SDS011;67260;53.130;17.982;2023-09-07T00:01:30;9.60;;;7.30;;
77012;SDS011;67260;53.130;17.982;2023-09-07T00:03:57;9.10;;;6.60;;
77012;SDS011;67260;53.130;17.982;2023-09-07T00:06:24;10.00;;;7.10;;
77012;SDS011;67260;53.130;17.982;2023-09-07T00:08:52;10.10;;;6.90;;
77012;SDS011;67260;53.130;17.982;2023-09-07T00:11:19;9.20;;;7.40;;
77012;SDS011;67260;53.130;17.982;2023-09-07T00:13:46;12.60;;;7.60;;
77012;SDS011;67260;53.130;17.982;2023-09-07T00:16:12;11.40;;;7.70;;
77012;SDS011;67260;53.130;17.982;2023-09-07T00:18:39;11.70;;;7.80;;
77012;SDS011;67260;53.130;17.982;2023-09-07T00:21:06;9.60;;;7.70;;
77012;SDS011;67260;53.130;17.982;2023-09-07T00:23:32;10.30;;;8.10;;
77012;SDS011;67260;53.130;17.982;2023-09-07T00:25:59;12.70;;;7.60;;
77012;SDS011;67260;53.130;17.982;2023-09-07T00:28:26;14.30;;;7.80;;
77012;SDS011;67260;53.130;17.982;2023-09-07T00:30:53;10.60;;;7.00;;
77012;SDS011;67260;53.130;17.982;2023-09-07T00:33:20;11.50;;;7.40;;
77012;SDS011;67260;53.130;17.982;2023-09-07T00:35:46;9.80;;;7.70;;
77012;SDS011;67260;53.130;17.982;2023-09-07T00:38:13;10.90;;;7.70;;
77012;SDS011;67260;53.130;17.982;2023-09-07T00:40:42;12.30;;;8.40;;
77012;SDS011;67260;53.130;17.982;2023-09-07T00:43:11;10.90;;;8.30;;
77012;SDS011;67260;53.130;17.982;2023-09-07T00:45:39;10.60;;;8.10;;
77012;SDS011;67260;53.130;17.982;2023-09-07T00:48:06;11.90;;;8.80;;
77012;SDS011;67260;53.130;17.982;2023-09-07T00:50:33;11.30;;;7.90;;
77012;SDS011;67260;53.130;17.982;2023-09-07T00:53:00;12.70;;;7.60;;
77012;SDS011;67260;53.130;17.982;2023-09-07T00:55:29;11.30;;;8.40;;
77012;SDS011;67260;53.130;17.982;2023-09-07T00:57:59;11.30;;;8.60;;
77012;SDS011;67260;53.130;17.982;2023-09-07T01:00:26;11.90;;;8.40;;
77012;SDS011;67260;53.130;17.982;2023-09-07T01:02:53;10.50;;;8.50;;
77012;SDS011;67260;53.130;17.982;2023-09-07T01:05:21;11.40;;;7.90;;
77012;SDS011;67260;53.130;17.982;2023-09-07T01:08:15;11.50;;;8.50;;
77012;SDS011;67260;53.130;17.982;2023-09-07T01:10:55;12.10;;;8.20;;
77012;SDS011;67260;53.130;17.982;2023-09-07T01:13:22;14.10;;;9.60;;
77012;SDS011;67260;53.130;17.982;2023-09-07T01:15:48;13.20;;;9.20;;
77012;SDS011;67260;53.130;17.982;2023-09-07T01:18:16;14.80;;;9.30;;
77012;SDS011;67260;53.130;17.982;2023-09-07T01:20:44;11.70;;;9.30;;
77012;SDS011;67260;53.130;17.982;2023-09-07T01:23:11;14.50;;;10.10;;
77012;SDS011;67260;53.130;17.982;2023-09-07T01:25:40;14.20;;;10.40;;
77012;SDS011;67260;53.130;17.982;2023-09-07T01:28:07;13.60;;;10.10;;
77012;SDS011;67260;53.130;17.982;2023-09-07T01:30:34;13.40;;;10.10;;
77012;SDS011;67260;53.130;17.982;2023-09-07T01:33:03;13.00;;;9.60;;
77012;SDS011;67260;53.130;17.982;2023-09-07T01:35:30;14.70;;;10.00;;
77012;SDS011;67260;53.130;17.982;2023-09-07T01:37:58;14.10;;;9.70;;
77012;SDS011;67260;53.130;17.982;2023-09-07T01:40:26;14.90;;;10.00;;
77012;SDS011;67260;53.130;17.982;2023-09-07T01:42:54;15.60;;;11.50;;
77012;SDS011;67260;53.130;17.982;2023-09-07T01:45:21;14.20;;;10.70;;
77012;SDS011;67260;53.130;17.982;2023-09-07T01:47:50;16.10;;;10.50;;
77012;SDS011;67260;53.130;17.982;2023-09-07T01:50:17;17.60;;;12.90;;
77012;SDS011;67260;53.130;17.982;2023-09-07T01:52:46;18.40;;;13.10;;
77012;SDS011;67260;53.130;17.982;2023-09-07T01:55:15;18.70;;;13.40;;
77012;SDS011;67260;53.130;17.982;2023-09-07T01:57:43;17.30;;;13.00;;
77012;SDS011;67260;53.130;17.982;2023-09-07T02:00:13;21.10;;;13.80;;
77012;SDS011;67260;53.130;17.982;2023-09-07T02:02:41;18.50;;;13.30;;
77012;SDS011;67260;53.130;17.982;2023-09-07T02:05:09;21.40;;;14.60;;
77012;SDS011;67260;53.130;17.982;2023-09-07T02:07:38;22.40;;;14.40;;
77012;SDS011;67260;53.130;17.982;2023-09-07T02:10:06;21.10;;;14.80;;
77012;SDS011;67260;53.130;17.982;2023-09-07T02:12:38;24.60;;;16.70;;
77012;SDS011;67260;53.130;17.982;2023-09-07T02:15:05;23.20;;;15.50;;
77012;SDS011;67260;53.130;17.982;2023-09-07T02:17:33;22.50;;;15.10;;
77012;SDS011;67260;53.130;17.982;2023-09-07T02:20:07;24.20;;;16.50;;
77012;SDS011;67260;53.130;17.982;2023-09-07T02:22:37;25.30;;;16.30;;
77012;SDS011;67260;53.130;17.982;2023-09-07T02:25:06;22.80;;;15.00;;
77012;SDS011;67260;53.130;17.982;2023-09-07T02:27:35;23.00;;;14.80;;
77012;SDS011;67260;53.130;17.982;2023-09-07T02:30:03;22.10;;;14.80;;
77012;SDS011;67260;53.130;17.982;2023-09-07T02:32:31;25.30;;;16.00;;
77012;SDS011;67260;53.130;17.982;2023-09-07T02:35:05;23.20;;;14.90;;
77012;SDS011;67260;53.130;17.982;2023-09-07T02:37:43;23.40;;;15.20;;
77012;SDS011;67260;53.130;17.982;2023-09-07T02:40:13;22.90;;;14.60;;
77012;SDS011;67260;53.130;17.982;2023-09-07T02:42:44;22.90;;;15.00;;
77012;SDS011;67260;53.130;17.982;2023-09-07T02:47:58;22.70;;;14.20;;
77012;SDS011;67260;53.130;17.982;2023-09-07T02:50:33;24.00;;;14.40;;
77012;SDS011;67260;53.130;17.982;2023-09-07T02:53:03;21.40;;;14.00;;
77012;SDS011;67260;53.130;17.982;2023-09-07T02:55:33;21.20;;;13.90;;
77012;SDS011;67260;53.130;17.982;2023-09-07T02:58:04;19.40;;;12.50;;
77012;SDS011;67260;53.130;17.982;2023-09-07T03:00:32;22.30;;;13.90;;
77012;SDS011;67260;53.130;17.982;2023-09-07T03:03:02;19.20;;;13.40;;
77012;SDS011;67260;53.130;17.982;2023-09-07T03:08:42;19.90;;;13.30;;
77012;SDS011;67260;53.130;17.982;2023-09-07T03:11:13;19.90;;;13.60;;
77012;SDS011;67260;53.130;17.982;2023-09-07T03:13:45;18.00;;;12.50;;
77012;SDS011;67260;53.130;17.982;2023-09-07T03:16:12;19.30;;;13.40;;
77012;SDS011;67260;53.130;17.982;2023-09-07T03:18:40;18.50;;;11.90;;
77012;SDS011;67260;53.130;17.982;2023-09-07T03:21:08;17.40;;;12.80;;
77012;SDS011;67260;53.130;17.982;2023-09-07T03:23:35;19.30;;;12.20;;
77012;SDS011;67260;53.130;17.982;2023-09-07T03:26:02;16.20;;;11.10;;
77012;SDS011;67260;53.130;17.982;2023-09-07T03:28:29;18.20;;;12.40;;
77012;SDS011;67260;53.130;17.982;2023-09-07T03:30:56;16.40;;;11.10;;
77012;SDS011;67260;53.130;17.982;2023-09-07T03:33:22;16.80;;;11.40;;
77012;SDS011;67260;53.130;17.982;2023-09-07T03:35:49;15.30;;;10.30;;
77012;SDS011;67260;53.130;17.982;2023-09-07T03:38:18;14.70;;;10.70;;
77012;SDS011;67260;53.130;17.982;2023-09-07T03:40:45;14.60;;;9.90;;
77012;SDS011;67260;53.130;17.982;2023-09-07T03:43:12;13.40;;;9.60;;
77012;SDS011;67260;53.130;17.982;2023-09-07T03:45:39;14.20;;;9.60;;
77012;SDS011;67260;53.130;17.982;2023-09-07T03:48:05;13.50;;;9.40;;
77012;SDS011;67260;53.130;17.982;2023-09-07T03:50:35;14.00;;;10.00;;
77012;SDS011;67260;53.130;17.982;2023-09-07T03:53:02;12.40;;;9.40;;
77012;SDS011;67260;53.130;17.982;2023-09-07T03:55:29;13.80;;;9.70;;
77012;SDS011;67260;53.130;17.982;2023-09-07T03:57:57;14.30;;;10.20;;
77012;SDS011;67260;53.130;17.982;2023-09-07T04:00:23;14.30;;;9.40;;
77012;SDS011;67260;53.130;17.982;2023-09-07T04:02:50;15.20;;;10.60;;
77012;SDS011;67260;53.130;17.982;2023-09-07T04:05:17;14.30;;;9.90;;
77012;SDS011;67260;53.130;17.982;2023-09-07T04:07:44;14.30;;;10.00;;
77012;SDS011;67260;53.130;17.982;2023-09-07T04:10:11;15.30;;;11.30;;
77012;SDS011;67260;53.130;17.982;2023-09-07T04:12:38;15.10;;;10.00;;
77012;SDS011;67260;53.130;17.982;2023-09-07T04:15:08;13.90;;;9.80;;
77012;SDS011;67260;53.130;17.982;2023-09-07T04:17:36;15.60;;;11.10;;
77012;SDS011;67260;53.130;17.982;2023-09-07T04:20:07;15.70;;;9.80;;
77012;SDS011;67260;53.130;17.982;2023-09-07T04:22:35;15.00;;;9.80;;
77012;SDS011;67260;53.130;17.982;2023-09-07T04:25:02;14.00;;;10.30;;
77012;SDS011;67260;53.130;17.982;2023-09-07T04:27:30;14.80;;;10.40;;
77012;SDS011;67260;53.130;17.982;2023-09-07T04:29:57;16.60;;;10.30;;
77012;SDS011;67260;53.130;17.982;2023-09-07T04:32:25;14.00;;;9.60;;
77012;SDS011;67260;53.130;17.982;2023-09-07T04:34:53;14.90;;;10.50;;
77012;SDS011;67260;53.130;17.982;2023-09-07T04:37:24;14.40;;;10.80;;
77012;SDS011;67260;53.130;17.982;2023-09-07T04:39:59;16.00;;;10.90;;
77012;SDS011;67260;53.130;17.982;2023-09-07T04:42:33;15.40;;;10.70;;
77012;SDS011;67260;53.130;17.982;2023-09-07T04:45:03;15.30;;;10.00;;
77012;SDS011;67260;53.130;17.982;2023-09-07T04:47:36;16.90;;;11.60;;
77012;SDS011;67260;53.130;17.982;2023-09-07T04:50:03;18.10;;;11.00;;
77012;SDS011;67260;53.130;17.982;2023-09-07T04:52:31;20.00;;;12.60;;
77012;SDS011;67260;53.130;17.982;2023-09-07T04:54:58;18.90;;;12.20;;
77012;SDS011;67260;53.130;17.982;2023-09-07T04:57:25;18.60;;;12.00;;
77012;SDS011;67260;53.130;17.982;2023-09-07T04:59:52;16.30;;;11.40;;
77012;SDS011;67260;53.130;17.982;2023-09-07T05:02:18;15.00;;;10.20;;
77012;SDS011;67260;53.130;17.982;2023-09-07T05:04:45;15.90;;;10.80;;
77012;SDS011;67260;53.130;17.982;2023-09-07T05:07:12;16.00;;;10.50;;
77012;SDS011;67260;53.130;17.982;2023-09-07T05:09:38;17.20;;;10.20;;
77012;SDS011;67260;53.130;17.982;2023-09-07T05:12:05;15.40;;;10.20;;
77012;SDS011;67260;53.130;17.982;2023-09-07T05:14:32;18.10;;;10.20;;
77012;SDS011;67260;53.130;17.982;2023-09-07T05:17:01;14.90;;;10.30;;
77012;SDS011;67260;53.130;17.982;2023-09-07T05:19:28;15.70;;;9.90;;
77012;SDS011;67260;53.130;17.982;2023-09-07T05:21:55;14.30;;;9.30;;
77012;SDS011;67260;53.130;17.982;2023-09-07T05:24:21;15.00;;;9.50;;
77012;SDS011;67260;53.130;17.982;2023-09-07T05:26:49;14.00;;;9.50;;
77012;SDS011;67260;53.130;17.982;2023-09-07T05:29:16;14.00;;;9.70;;
77012;SDS011;67260;53.130;17.982;2023-09-07T05:31:43;15.80;;;11.30;;
77012;SDS011;67260;53.130;17.982;2023-09-07T05:34:10;16.90;;;10.20;;
77012;SDS011;67260;53.130;17.982;2023-09-07T05:36:37;14.50;;;10.80;;
77012;SDS011;67260;53.130;17.982;2023-09-07T05:39:04;16.50;;;10.40;;
77012;SDS011;67260;53.130;17.982;2023-09-07T05:41:31;13.60;;;9.70;;
77012;SDS011;67260;53.130;17.982;2023-09-07T05:43:58;16.00;;;10.10;;
77012;SDS011;67260;53.130;17.982;2023-09-07T05:46:25;13.60;;;9.30;;
77012;SDS011;67260;53.130;17.982;2023-09-07T05:48:52;14.00;;;9.60;;
77012;SDS011;67260;53.130;17.982;2023-09-07T05:51:18;14.20;;;9.40;;
77012;SDS011;67260;53.130;17.982;2023-09-07T05:53:45;13.20;;;9.10;;
77012;SDS011;67260;53.130;17.982;2023-09-07T05:56:12;14.60;;;9.80;;
77012;SDS011;67260;53.130;17.982;2023-09-07T05:58:39;14.70;;;9.60;;
77012;SDS011;67260;53.130;17.982;2023-09-07T06:01:05;14.40;;;9.40;;
77012;SDS011;67260;53.130;17.982;2023-09-07T06:03:33;14.00;;;9.50;;
77012;SDS011;67260;53.130;17.982;2023-09-07T06:06:02;13.30;;;8.90;;
77012;SDS011;67260;53.130;17.982;2023-09-07T06:08:29;14.50;;;8.90;;
77012;SDS011;67260;53.130;17.982;2023-09-07T06:10:56;14.00;;;9.00;;
77012;SDS011;67260;53.130;17.982;2023-09-07T06:13:22;13.80;;;9.70;;
77012;SDS011;67260;53.130;17.982;2023-09-07T06:15:49;13.30;;;9.30;;
77012;SDS011;67260;53.130;17.982;2023-09-07T06:18:16;13.30;;;9.00;;
77012;SDS011;67260;53.130;17.982;2023-09-07T06:20:43;13.90;;;9.50;;
77012;SDS011;67260;53.130;17.982;2023-09-07T06:23:10;12.70;;;9.00;;
77012;SDS011;67260;53.130;17.982;2023-09-07T06:25:37;11.60;;;8.20;;
77012;SDS011;67260;53.130;17.982;2023-09-07T06:28:04;13.20;;;8.80;;
77012;SDS011;67260;53.130;17.982;2023-09-07T06:30:31;10.60;;;8.20;;
77012;SDS011;67260;53.130;17.982;2023-09-07T06:32:58;12.50;;;9.20;;
77012;SDS011;67260;53.130;17.982;2023-09-07T06:35:26;11.70;;;9.00;;
77012;SDS011;67260;53.130;17.982;2023-09-07T06:37:53;14.30;;;8.90;;
77012;SDS011;67260;53.130;17.982;2023-09-07T06:40:22;12.90;;;8.80;;
77012;SDS011;67260;53.130;17.982;2023-09-07T06:42:52;12.00;;;8.50;;
77012;SDS011;67260;53.130;17.982;2023-09-07T06:45:21;11.00;;;8.30;;
77012;SDS011;67260;53.130;17.982;2023-09-07T06:47:50;12.10;;;7.70;;
77012;SDS011;67260;53.130;17.982;2023-09-07T06:50:17;15.60;;;7.90;;
77012;SDS011;67260;53.130;17.982;2023-09-07T06:52:46;11.60;;;8.30;;
77012;SDS011;67260;53.130;17.982;2023-09-07T06:55:17;11.90;;;8.10;;
77012;SDS011;67260;53.130;17.982;2023-09-07T06:57:45;14.10;;;8.20;;
77012;SDS011;67260;53.130;17.982;2023-09-07T07:00:12;10.90;;;7.90;;
77012;SDS011;67260;53.130;17.982;2023-09-07T07:02:40;13.60;;;7.50;;
77012;SDS011;67260;53.130;17.982;2023-09-07T07:05:08;11.20;;;7.70;;
77012;SDS011;67260;53.130;17.982;2023-09-07T07:07:35;10.70;;;7.40;;
77012;SDS011;67260;53.130;17.982;2023-09-07T07:10:02;10.70;;;7.30;;
77012;SDS011;67260;53.130;17.982;2023-09-07T07:12:31;11.30;;;7.80;;
77012;SDS011;67260;53.130;17.982;2023-09-07T07:15:01;12.70;;;7.60;;
77012;SDS011;67260;53.130;17.982;2023-09-07T07:17:29;11.00;;;8.00;;
77012;SDS011;67260;53.130;17.982;2023-09-07T07:19:58;10.20;;;7.40;;
77012;SDS011;67260;53.130;17.982;2023-09-07T07:22:25;12.30;;;8.30;;
77012;SDS011;67260;53.130;17.982;2023-09-07T07:34:10;9.40;;;6.80;;
77012;SDS011;67260;53.130;17.982;2023-09-07T07:36:40;9.90;;;7.50;;
77012;SDS011;67260;53.130;17.982;2023-09-07T07:39:26;10.20;;;6.50;;
77012;SDS011;67260;53.130;17.982;2023-09-07T07:41:53;8.50;;;6.40;;
77012;SDS011;67260;53.130;17.982;2023-09-07T07:44:26;8.50;;;6.50;;
77012;SDS011;67260;53.130;17.982;2023-09-07T07:46:54;8.50;;;6.70;;
77012;SDS011;67260;53.130;17.982;2023-09-07T07:49:20;11.20;;;6.70;;
77012;SDS011;67260;53.130;17.982;2023-09-07T07:51:48;8.00;;;5.90;;
77012;SDS011;67260;53.130;17.982;2023-09-07T07:54:24;5.70;;;4.80;;
77012;SDS011;67260;53.130;17.982;2023-09-07T07:56:53;8.30;;;5.90;;
77012;SDS011;67260;53.130;17.982;2023-09-07T07:59:20;9.50;;;5.70;;
77012;SDS011;67260;53.130;17.982;2023-09-07T08:01:47;8.00;;;5.60;;
77012;SDS011;67260;53.130;17.982;2023-09-07T08:04:22;9.20;;;5.10;;
77012;SDS011;67260;53.130;17.982;2023-09-07T08:09:44;7.40;;;4.40;;
77012;SDS011;67260;53.130;17.982;2023-09-07T08:12:12;6.70;;;4.60;;
77012;SDS011;67260;53.130;17.982;2023-09-07T08:14:47;7.90;;;4.60;;
77012;SDS011;67260;53.130;17.982;2023-09-07T08:17:14;6.40;;;4.00;;
77012;SDS011;67260;53.130;17.982;2023-09-07T08:19:43;5.30;;;4.30;;
77012;SDS011;67260;53.130;17.982;2023-09-07T08:22:19;8.20;;;3.80;;
77012;SDS011;67260;53.130;17.982;2023-09-07T08:24:52;6.90;;;4.00;;
77012;SDS011;67260;53.130;17.982;2023-09-07T08:27:28;8.00;;;4.10;;
77012;SDS011;67260;53.130;17.982;2023-09-07T08:30:01;6.00;;;3.80;;
77012;SDS011;67260;53.130;17.982;2023-09-07T08:32:35;5.40;;;3.60;;
77012;SDS011;67260;53.130;17.982;2023-09-07T08:35:07;4.90;;;3.70;;
77012;SDS011;67260;53.130;17.982;2023-09-07T08:37:42;5.30;;;3.50;;
77012;SDS011;67260;53.130;17.982;2023-09-07T08:40:09;4.50;;;3.70;;
77012;SDS011;67260;53.130;17.982;2023-09-07T08:42:41;5.30;;;3.40;;
77012;SDS011;67260;53.130;17.982;2023-09-07T08:45:22;4.90;;;3.60;;
77012;SDS011;67260;53.130;17.982;2023-09-07T08:47:59;6.30;;;3.60;;
77012;SDS011;67260;53.130;17.982;2023-09-07T08:50:28;4.80;;;3.80;;
77012;SDS011;67260;53.130;17.982;2023-09-07T08:53:18;6.10;;;3.60;;
77012;SDS011;67260;53.130;17.982;2023-09-07T08:59:22;5.30;;;3.10;;
77012;SDS011;67260;53.130;17.982;2023-09-07T09:02:37;5.40;;;2.90;;
77012;SDS011;67260;53.130;17.982;2023-09-07T09:05:26;5.90;;;3.60;;
77012;SDS011;67260;53.130;17.982;2023-09-07T09:08:01;5.70;;;2.90;;
77012;SDS011;67260;53.130;17.982;2023-09-07T09:10:32;6.00;;;3.20;;
77012;SDS011;67260;53.130;17.982;2023-09-07T09:13:35;5.00;;;3.70;;
77012;SDS011;67260;53.130;17.982;2023-09-07T09:16:04;5.70;;;3.00;;
77012;SDS011;67260;53.130;17.982;2023-09-07T09:18:48;5.70;;;3.20;;
77012;SDS011;67260;53.130;17.982;2023-09-07T09:21:26;5.30;;;3.10;;
77012;SDS011;67260;53.130;17.982;2023-09-07T09:24:25;7.20;;;3.00;;
77012;SDS011;67260;53.130;17.982;2023-09-07T09:27:01;6.30;;;3.30;;
77012;SDS011;67260;53.130;17.982;2023-09-07T09:29:36;7.40;;;3.20;;
77012;SDS011;67260;53.130;17.982;2023-09-07T09:32:29;7.10;;;3.40;;
77012;SDS011;67260;53.130;17.982;2023-09-07T09:35:53;5.40;;;3.30;;
77012;SDS011;67260;53.130;17.982;2023-09-07T09:38:26;4.60;;;3.30;;
77012;SDS011;67260;53.130;17.982;2023-09-07T09:40:57;4.70;;;3.40;;
77012;SDS011;67260;53.130;17.982;2023-09-07T09:43:28;5.10;;;3.00;;
77012;SDS011;67260;53.130;17.982;2023-09-07T09:45:59;4.10;;;2.70;;
77012;SDS011;67260;53.130;17.982;2023-09-07T09:48:31;4.40;;;3.00;;
77012;SDS011;67260;53.130;17.982;2023-09-07T09:51:00;6.20;;;2.50;;
77012;SDS011;67260;53.130;17.982;2023-09-07T09:53:30;4.50;;;2.80;;
77012;SDS011;67260;53.130;17.982;2023-09-07T09:56:55;4.70;;;2.80;;
77012;SDS011;67260;53.130;17.982;2023-09-07T09:59:32;5.30;;;2.90;;
77012;SDS011;67260;53.130;17.982;2023-09-07T10:02:02;5.20;;;3.00;;
77012;SDS011;67260;53.130;17.982;2023-09-07T10:04:31;4.80;;;3.10;;
77012;SDS011;67260;53.130;17.982;2023-09-07T10:06:59;4.80;;;2.60;;
77012;SDS011;67260;53.130;17.982;2023-09-07T10:09:34;4.50;;;2.60;;
77012;SDS011;67260;53.130;17.982;2023-09-07T10:12:03;5.10;;;2.90;;
77012;SDS011;67260;53.130;17.982;2023-09-07T10:14:38;4.00;;;2.70;;
77012;SDS011;67260;53.130;17.982;2023-09-07T10:17:10;5.00;;;2.50;;
77012;SDS011;67260;53.130;17.982;2023-09-07T10:20:02;5.30;;;2.60;;
77012;SDS011;67260;53.130;17.982;2023-09-07T10:22:37;5.60;;;2.70;;
77012;SDS011;67260;53.130;17.982;2023-09-07T10:25:06;5.80;;;2.60;;
77012;SDS011;67260;53.130;17.982;2023-09-07T10:27:38;4.40;;;2.70;;
77012;SDS011;67260;53.130;17.982;2023-09-07T10:30:11;4.90;;;2.90;;
77012;SDS011;67260;53.130;17.982;2023-09-07T10:32:49;3.90;;;2.50;;
77012;SDS011;67260;53.130;17.982;2023-09-07T10:35:26;7.00;;;3.20;;
77012;SDS011;67260;53.130;17.982;2023-09-07T10:38:04;6.90;;;2.70;;
77012;SDS011;67260;53.130;17.982;2023-09-07T10:40:45;6.80;;;3.30;;
77012;SDS011;67260;53.130;17.982;2023-09-07T10:43:14;5.20;;;3.20;;
77012;SDS011;67260;53.130;17.982;2023-09-07T10:48:19;5.90;;;2.90;;
77012;SDS011;67260;53.130;17.982;2023-09-07T10:50:46;4.10;;;2.80;;
77012;SDS011;67260;53.130;17.982;2023-09-07T10:53:14;4.70;;;3.20;;
77012;SDS011;67260;53.130;17.982;2023-09-07T10:55:41;7.90;;;3.40;;
77012;SDS011;67260;53.130;17.982;2023-09-07T10:58:24;9.40;;;3.30;;
77012;SDS011;67260;53.130;17.982;2023-09-07T11:00:58;4.60;;;2.90;;
77012;SDS011;67260;53.130;17.982;2023-09-07T11:03:26;9.00;;;3.00;;
77012;SDS011;67260;53.130;17.982;2023-09-07T11:05:54;4.70;;;2.80;;
77012;SDS011;67260;53.130;17.982;2023-09-07T11:08:25;6.50;;;3.00;;
77012;SDS011;67260;53.130;17.982;2023-09-07T11:11:10;5.70;;;3.00;;
77012;SDS011;67260;53.130;17.982;2023-09-07T11:13:37;4.70;;;3.20;;
77012;SDS011;67260;53.130;17.982;2023-09-07T11:16:09;5.20;;;3.10;;
77012;SDS011;67260;53.130;17.982;2023-09-07T11:18:37;6.70;;;3.00;;
77012;SDS011;67260;53.130;17.982;2023-09-07T11:21:06;6.10;;;3.10;;
77012;SDS011;67260;53.130;17.982;2023-09-07T11:23:36;7.00;;;3.00;;
77012;SDS011;67260;53.130;17.982;2023-09-07T11:26:16;6.20;;;3.20;;
77012;SDS011;67260;53.130;17.982;2023-09-07T11:28:47;6.40;;;3.10;;
77012;SDS011;67260;53.130;17.982;2023-09-07T11:31:17;5.50;;;2.90;;
77012;SDS011;67260;53.130;17.982;2023-09-07T11:33:50;5.60;;;2.80;;
77012;SDS011;67260;53.130;17.982;2023-09-07T11:36:20;7.00;;;2.90;;
77012;SDS011;67260;53.130;17.982;2023-09-07T11:38:50;5.00;;;2.90;;
77012;SDS011;67260;53.130;17.982;2023-09-07T11:41:17;4.80;;;2.80;;
77012;SDS011;67260;53.130;17.982;2023-09-07T11:43:44;6.50;;;3.00;;
77012;SDS011;67260;53.130;17.982;2023-09-07T11:46:14;6.30;;;3.10;;
77012;SDS011;67260;53.130;17.982;2023-09-07T11:48:41;7.30;;;2.90;;
77012;SDS011;67260;53.130;17.982;2023-09-07T11:51:08;6.00;;;2.90;;
77012;SDS011;67260;53.130;17.982;2023-09-07T11:56:07;6.20;;;3.20;;
77012;SDS011;67260;53.130;17.982;2023-09-07T11:58:34;5.20;;;3.30;;
77012;SDS011;67260;53.130;17.982;2023-09-07T12:01:00;8.30;;;3.10;;
77012;SDS011;67260;53.130;17.982;2023-09-07T12:03:27;5.00;;;3.00;;
77012;SDS011;67260;53.130;17.982;2023-09-07T12:05:57;6.10;;;3.20;;
77012;SDS011;67260;53.130;17.982;2023-09-07T12:08:23;6.20;;;3.00;;
77012;SDS011;67260;53.130;17.982;2023-09-07T12:10:54;4.80;;;2.70;;
77012;SDS011;67260;53.130;17.982;2023-09-07T12:13:21;19.40;;;3.60;;
77012;SDS011;67260;53.130;17.982;2023-09-07T12:15:48;29.50;;;4.00;;
77012;SDS011;67260;53.130;17.982;2023-09-07T12:18:15;6.40;;;3.40;;
77012;SDS011;67260;53.130;17.982;2023-09-07T12:20:42;8.00;;;3.00;;
77012;SDS011;67260;53.130;17.982;2023-09-07T12:23:10;24.40;;;4.70;;
77012;SDS011;67260;53.130;17.982;2023-09-07T12:25:37;22.50;;;4.00;;
77012;SDS011;67260;53.130;17.982;2023-09-07T12:28:04;7.70;;;3.70;;
77012;SDS011;67260;53.130;17.982;2023-09-07T12:30:31;6.20;;;3.90;;
77012;SDS011;67260;53.130;17.982;2023-09-07T12:32:58;5.20;;;3.00;;
77012;SDS011;67260;53.130;17.982;2023-09-07T12:35:24;5.40;;;3.30;;
77012;SDS011;67260;53.130;17.982;2023-09-07T12:37:51;5.30;;;3.00;;
77012;SDS011;67260;53.130;17.982;2023-09-07T12:40:18;10.30;;;3.20;;
77012;SDS011;67260;53.130;17.982;2023-09-07T12:42:45;5.10;;;3.10;;
77012;SDS011;67260;53.130;17.982;2023-09-07T12:45:13;9.20;;;3.30;;
77012;SDS011;67260;53.130;17.982;2023-09-07T12:47:43;9.30;;;3.40;;
77012;SDS011;67260;53.130;17.982;2023-09-07T12:50:11;6.00;;;3.70;;
77012;SDS011;67260;53.130;17.982;2023-09-07T12:52:40;7.80;;;3.30;;
77012;SDS011;67260;53.130;17.982;2023-09-07T12:55:07;5.50;;;3.60;;
77012;SDS011;67260;53.130;17.982;2023-09-07T12:57:34;6.10;;;3.20;;
77012;SDS011;67260;53.130;17.982;2023-09-07T13:00:15;5.60;;;3.30;;
77012;SDS011;67260;53.130;17.982;2023-09-07T13:02:45;5.10;;;3.10;;
77012;SDS011;67260;53.130;17.982;2023-09-07T13:05:12;7.50;;;3.50;;
77012;SDS011;67260;53.130;17.982;2023-09-07T13:07:39;5.30;;;3.40;;
77012;SDS011;67260;53.130;17.982;2023-09-07T13:10:08;5.30;;;3.20;;
77012;SDS011;67260;53.130;17.982;2023-09-07T13:12:38;4.40;;;3.20;;
77012;SDS011;67260;53.130;17.982;2023-09-07T13:15:11;5.90;;;3.50;;
77012;SDS011;67260;53.130;17.982;2023-09-07T13:17:41;6.00;;;3.30;;
77012;SDS011;67260;53.130;17.982;2023-09-07T13:20:11;12.00;;;3.30;;
77012;SDS011;67260;53.130;17.982;2023-09-07T13:22:39;13.80;;;3.90;;
77012;SDS011;67260;53.130;17.982;2023-09-07T13:25:06;8.40;;;3.80;;
77012;SDS011;67260;53.130;17.982;2023-09-07T13:27:33;13.00;;;3.90;;
77012;SDS011;67260;53.130;17.982;2023-09-07T13:30:04;10.00;;;3.40;;
77012;SDS011;67260;53.130;17.982;2023-09-07T13:32:33;9.20;;;3.50;;
77012;SDS011;67260;53.130;17.982;2023-09-07T13:35:08;5.30;;;3.40;;
77012;SDS011;67260;53.130;17.982;2023-09-07T13:37:35;5.60;;;3.40;;
77012;SDS011;67260;53.130;17.982;2023-09-07T13:40:05;8.70;;;4.20;;
77012;SDS011;67260;53.130;17.982;2023-09-07T13:42:37;7.10;;;3.40;;
77012;SDS011;67260;53.130;17.982;2023-09-07T13:45:07;6.90;;;3.50;;
77012;SDS011;67260;53.130;17.982;2023-09-07T13:47:35;8.10;;;3.50;;
77012;SDS011;67260;53.130;17.982;2023-09-07T13:50:14;7.30;;;3.50;;
77012;SDS011;67260;53.130;17.982;2023-09-07T13:52:44;5.80;;;3.60;;
77012;SDS011;67260;53.130;17.982;2023-09-07T13:55:14;10.20;;;3.90;;
77012;SDS011;67260;53.130;17.982;2023-09-07T14:00:14;7.50;;;3.30;;
77012;SDS011;67260;53.130;17.982;2023-09-07T14:02:40;7.40;;;3.20;;
77012;SDS011;67260;53.130;17.982;2023-09-07T14:05:17;9.40;;;3.50;;
77012;SDS011;67260;53.130;17.982;2023-09-07T14:07:45;5.00;;;3.20;;
77012;SDS011;67260;53.130;17.982;2023-09-07T14:10:13;6.90;;;3.00;;
77012;SDS011;67260;53.130;17.982;2023-09-07T14:12:41;4.80;;;3.30;;
77012;SDS011;67260;53.130;17.982;2023-09-07T14:15:10;5.40;;;3.30;;
77012;SDS011;67260;53.130;17.982;2023-09-07T14:17:37;6.60;;;3.30;;
77012;SDS011;67260;53.130;17.982;2023-09-07T14:20:06;5.30;;;3.00;;
77012;SDS011;67260;53.130;17.982;2023-09-07T14:22:39;5.70;;;3.30;;
77012;SDS011;67260;53.130;17.982;2023-09-07T14:25:09;7.60;;;3.30;;
77012;SDS011;67260;53.130;17.982;2023-09-07T14:27:42;7.60;;;3.20;;
77012;SDS011;67260;53.130;17.982;2023-09-07T14:30:10;5.70;;;2.90;;
77012;SDS011;67260;53.130;17.982;2023-09-07T14:32:37;3.70;;;2.40;;
77012;SDS011;67260;53.130;17.982;2023-09-07T14:35:05;5.60;;;2.70;;
77012;SDS011;67260;53.130;17.982;2023-09-07T14:37:32;5.40;;;2.60;;
77012;SDS011;67260;53.130;17.982;2023-09-07T14:40:02;5.00;;;2.80;;
77012;SDS011;67260;53.130;17.982;2023-09-07T14:42:29;5.00;;;2.70;;
77012;SDS011;67260;53.130;17.982;2023-09-07T14:44:56;4.50;;;2.50;;
77012;SDS011;67260;53.130;17.982;2023-09-07T14:47:30;4.10;;;2.80;;
77012;SDS011;67260;53.130;17.982;2023-09-07T14:49:56;4.10;;;2.50;;
77012;SDS011;67260;53.130;17.982;2023-09-07T14:52:23;5.50;;;3.20;;
77012;SDS011;67260;53.130;17.982;2023-09-07T14:54:56;4.40;;;3.20;;
77012;SDS011;67260;53.130;17.982;2023-09-07T14:57:26;7.10;;;3.30;;
77012;SDS011;67260;53.130;17.982;2023-09-07T14:59:53;6.70;;;4.00;;
77012;SDS011;67260;53.130;17.982;2023-09-07T15:02:19;7.20;;;3.50;;
77012;SDS011;67260;53.130;17.982;2023-09-07T15:04:46;9.10;;;3.50;;
77012;SDS011;67260;53.130;17.982;2023-09-07T15:07:15;8.90;;;3.60;;
77012;SDS011;67260;53.130;17.982;2023-09-07T15:09:42;5.60;;;3.50;;